Poltava, Ukraine
Current Conditions -  °F | °C
As of 3:30 AM on Tuesday 25 Nov 2014 (Local Time) from UKHH Reporting Station
Overcast Overcast  
Wind Chill: -10°   Ceiling: 2300
Heat Index: -5°   Visibility: 6mi
Dew Point: -10°   Wind: 9mph
Humidity: 68%   Direction: 90°E
Pressure: 30.62"   Gusts: NA
Location:  49.58°N, 34.57°E
Report Text: UKHH 250030Z 09004MPS 9999 OVC023 M05/M10 Q1037 070///65 NOSIG
Loading
Personal Weather Stations






























Interactive Weather Map New forecast layout! Learn more

10-Day Weather Forecast

Advertisements
Track Severe Weather on mobile